createdAt,value
2018-09-03T00:00:05.014Z,23.4
2018-09-03T00:02:07.308Z,23.4
2018-09-03T00:04:07.540Z,23.3
2018-09-03T00:06:05.234Z,23.3
2018-09-03T00:08:05.503Z,23.4
2018-09-03T00:10:04.674Z,23.3
2018-09-03T00:12:10.615Z,23.4
2018-09-03T00:14:04.808Z,23.3
2018-09-03T00:16:05.498Z,23.4
2018-09-03T00:18:07.930Z,23.3
2018-09-03T00:20:04.621Z,23.3
2018-09-03T00:22:05.589Z,23.3
2018-09-03T00:24:05.239Z,23.3
2018-09-03T00:26:04.921Z,23.4
2018-09-03T00:28:05.837Z,23.3
2018-09-03T00:30:05.531Z,23.3
2018-09-03T00:32:07.754Z,23.3
2018-09-03T00:34:05.013Z,23.3
2018-09-03T00:36:04.684Z,23.3
2018-09-03T00:38:05.608Z,23.3
2018-09-03T00:40:04.761Z,23.3
2018-09-03T00:42:07.695Z,23.3
2018-09-03T00:44:05.369Z,23.3
2018-09-03T00:46:07.664Z,23.3
2018-09-03T00:48:05.351Z,23.3
2018-09-03T00:50:05.011Z,23.3
2018-09-03T00:52:04.668Z,23.3
2018-09-03T00:54:07.446Z,23.2
2018-09-03T00:56:05.166Z,23.2
2018-09-03T00:58:04.847Z,23.2
2018-09-03T01:00:05.529Z,23.2
2018-09-03T01:02:05.244Z,23.2
2018-09-03T01:04:04.929Z,23.2
2018-09-03T01:06:07.148Z,23.2
2018-09-03T01:08:05.417Z,23.2
2018-09-03T01:10:05.229Z,23.2
2018-09-03T01:12:07.468Z,23.2
2018-09-03T01:14:05.239Z,23.2
2018-09-03T01:16:05.012Z,23.2
2018-09-03T01:18:04.884Z,23.2
2018-09-03T01:20:04.574Z,23.2
2018-09-03T01:22:04.804Z,23.1
2018-09-03T01:24:05.484Z,23.1
2018-09-03T01:26:05.243Z,23.1
2018-09-03T01:28:07.670Z,23.1
2018-09-03T01:30:05.314Z,23.1
2018-09-03T01:32:05.017Z,23.1
2018-09-03T01:34:07.820Z,23.1
2018-09-03T01:36:05.581Z,23
2018-09-03T01:38:07.789Z,23.1
2018-09-03T01:40:08.024Z,23.1
2018-09-03T01:42:04.834Z,23
2018-09-03T01:44:08.124Z,23
2018-09-03T01:46:04.797Z,23
2018-09-03T01:48:05.538Z,23
2018-09-03T01:50:05.244Z,23
2018-09-03T01:52:07.460Z,23.1
2018-09-03T01:54:05.124Z,23
2018-09-03T01:56:10.434Z,23
2018-09-03T01:58:12.704Z,23
2018-09-03T02:00:05.434Z,23
2018-09-03T02:02:07.187Z,23
2018-09-03T02:04:05.452Z,23
2018-09-03T02:06:05.217Z,23
2018-09-03T02:08:04.924Z,23
2018-09-03T02:10:05.621Z,23
2018-09-03T02:12:05.322Z,23
2018-09-03T02:14:05.035Z,23
2018-09-03T02:16:04.741Z,23
2018-09-03T02:18:05.590Z,23
2018-09-03T02:20:05.398Z,23
2018-09-03T02:22:05.129Z,23
2018-09-03T02:24:07.362Z,23
2018-09-03T02:26:05.593Z,23
2018-09-03T02:28:05.339Z,23
2018-09-03T02:30:10.157Z,23
2018-09-03T02:32:04.920Z,23
2018-09-03T02:34:04.680Z,23
2018-09-03T02:36:05.418Z,23
2018-09-03T02:38:07.187Z,23
2018-09-03T02:40:04.858Z,23
2018-09-03T02:42:08.038Z,23
2018-09-03T02:44:04.684Z,23
2018-09-03T02:46:05.060Z,22.9
2018-09-03T02:48:04.842Z,23
2018-09-03T02:50:05.541Z,23
2018-09-03T02:52:05.294Z,23
2018-09-03T02:54:04.975Z,23
2018-09-03T02:56:04.631Z,23
2018-09-03T02:58:04.911Z,22.9
2018-09-03T03:00:05.099Z,23
2018-09-03T03:02:07.333Z,23
2018-09-03T03:04:05.036Z,22.9
2018-09-03T03:06:04.687Z,23
2018-09-03T03:08:05.346Z,23
2018-09-03T03:10:05.987Z,22.9
2018-09-03T03:12:05.227Z,22.9
2018-09-03T03:14:04.953Z,22.9
2018-09-03T03:16:04.658Z,22.9
2018-09-03T03:18:05.585Z,22.9
2018-09-03T03:20:06.281Z,22.9
2018-09-03T03:22:05.525Z,22.9
2018-09-03T03:24:04.713Z,22.9
2018-09-03T03:26:05.502Z,22.9
2018-09-03T03:28:10.286Z,22.9
2018-09-03T03:30:05.554Z,22.9
2018-09-03T03:32:05.554Z,22.9
2018-09-03T03:34:05.281Z,22.9
2018-09-03T03:36:05.078Z,22.9
2018-09-03T03:38:04.761Z,22.9
2018-09-03T03:40:08.063Z,22.9
2018-09-03T03:42:04.807Z,22.9
2018-09-03T03:44:10.555Z,22.9
2018-09-03T03:46:07.831Z,22.9
2018-09-03T03:48:05.488Z,22.9
2018-09-03T03:50:05.199Z,22.9
2018-09-03T03:52:04.897Z,22.9
2018-09-03T03:54:05.688Z,22.9
2018-09-03T03:56:05.448Z,22.9
2018-09-03T03:58:05.169Z,22.9
2018-09-03T04:00:05.019Z,22.9
2018-09-03T04:02:04.718Z,22.9
2018-09-03T04:04:07.531Z,22.9
2018-09-03T04:06:05.322Z,22.9
2018-09-03T04:08:07.556Z,22.8
2018-09-03T04:10:06.044Z,22.8
2018-09-03T04:12:04.721Z,22.8
2018-09-03T04:14:07.983Z,22.8
2018-09-03T04:16:04.818Z,22.8
2018-09-03T04:18:04.749Z,22.8
2018-09-03T04:20:05.454Z,22.8
2018-09-03T04:22:07.747Z,22.8
2018-09-03T04:24:05.468Z,22.8
2018-09-03T04:26:10.196Z,22.9
2018-09-03T04:28:04.902Z,22.9
2018-09-03T04:30:05.588Z,22.9
2018-09-03T04:32:09.880Z,22.8
2018-09-03T04:34:08.165Z,22.8
2018-09-03T04:36:04.896Z,22.8
2018-09-03T04:38:15.333Z,22.8
2018-09-03T04:40:08.041Z,22.8
2018-09-03T04:42:09.804Z,22.8
2018-09-03T04:44:05.507Z,22.8
2018-09-03T04:46:05.161Z,22.9
2018-09-03T04:48:04.943Z,22.9
2018-09-03T04:50:07.621Z,22.8
2018-09-03T04:52:04.913Z,22.9
2018-09-03T04:54:04.714Z,22.9
2018-09-03T04:56:07.999Z,22.9
2018-09-03T04:58:05.258Z,22.9
2018-09-03T05:00:10.022Z,22.8
2018-09-03T05:02:04.742Z,22.9
2018-09-03T05:04:05.521Z,22.9
2018-09-03T05:06:05.443Z,22.9
2018-09-03T05:08:05.382Z,22.9
2018-09-03T05:10:05.086Z,22.9
2018-09-03T05:12:04.839Z,22.9
2018-09-03T05:14:05.515Z,22.9
2018-09-03T05:16:05.423Z,22.9
2018-09-03T05:18:09.876Z,22.9
2018-09-03T05:20:10.600Z,22.9
2018-09-03T05:22:04.905Z,22.9
2018-09-03T05:24:04.642Z,22.9
2018-09-03T05:26:05.315Z,22.9
2018-09-03T05:28:05.248Z,22.8
2018-09-03T05:30:07.507Z,22.9
2018-09-03T05:32:05.190Z,22.9
2018-09-03T05:34:10.441Z,22.9
2018-09-03T05:36:05.121Z,22.9
2018-09-03T05:38:05.295Z,22.9
2018-09-03T05:40:04.993Z,22.9
2018-09-03T05:42:09.780Z,22.8
2018-09-03T05:44:05.604Z,22.8
2018-09-03T05:46:04.958Z,22.8
2018-09-03T05:48:07.180Z,22.8
2018-09-03T05:50:04.928Z,22.8
2018-09-03T05:52:04.870Z,22.8
2018-09-03T05:54:05.151Z,22.8
2018-09-03T05:56:04.893Z,22.8
2018-09-03T05:58:05.622Z,22.8
2018-09-03T06:00:04.841Z,22.9
2018-09-03T06:02:08.109Z,22.9
2018-09-03T06:04:04.894Z,22.9
2018-09-03T06:06:04.675Z,22.9
2018-09-03T06:08:05.433Z,22.8
2018-09-03T06:10:08.480Z,22.8
2018-09-03T06:12:05.154Z,22.7
2018-09-03T06:14:04.870Z,22.7
2018-09-03T06:16:05.260Z,22.7
2018-09-03T06:18:05.232Z,22.8
2018-09-03T06:20:07.500Z,22.7
2018-09-03T06:22:09.827Z,22.7
2018-09-03T06:24:05.526Z,22.7
2018-09-03T06:26:05.233Z,22.5
2018-09-03T06:28:05.489Z,22.6
2018-09-03T06:30:05.168Z,22.6
2018-09-03T06:32:04.892Z,22.7
2018-09-03T06:34:09.702Z,22.7
2018-09-03T06:36:05.424Z,22.7
2018-09-03T06:38:12.739Z,22.7
2018-09-03T06:40:05.734Z,22.8
2018-09-03T06:42:05.454Z,22.8
2018-09-03T06:44:05.236Z,22.6
2018-09-03T06:46:04.930Z,22.7
2018-09-03T06:48:07.142Z,22.7
2018-09-03T06:50:07.345Z,22.7
2018-09-03T06:52:05.326Z,22.7
2018-09-03T06:54:05.027Z,22.7
2018-09-03T06:56:04.750Z,22.7
2018-09-03T06:58:05.529Z,22.4
2018-09-03T07:00:05.203Z,22.4
2018-09-03T07:02:04.879Z,22.5
2018-09-03T07:04:05.570Z,22.6
2018-09-03T07:06:10.401Z,22.6
2018-09-03T07:08:04.671Z,22.6
2018-09-03T07:10:05.795Z,22.7
2018-09-03T07:12:05.505Z,22.7
2018-09-03T07:14:05.207Z,22.8
2018-09-03T07:16:04.915Z,22.8
2018-09-03T07:18:07.423Z,22.8
2018-09-03T07:20:05.150Z,22.8
2018-09-03T07:22:04.878Z,22.7
2018-09-03T07:24:05.581Z,22.7
2018-09-03T07:26:05.276Z,22.8
2018-09-03T07:28:07.512Z,22.9
2018-09-03T07:30:05.197Z,22.8
2018-09-03T07:32:04.865Z,22.9
2018-09-03T07:34:10.631Z,22.9
2018-09-03T07:36:05.327Z,22.9
2018-09-03T07:38:10.527Z,22.8
2018-09-03T07:40:05.240Z,22.9
2018-09-03T07:42:05.450Z,22.7
2018-09-03T07:44:04.838Z,22.3
2018-09-03T07:46:05.493Z,22.5
2018-09-03T07:48:04.705Z,22.6
2018-09-03T07:50:07.881Z,22.7
2018-09-03T07:52:05.545Z,22.7
2018-09-03T07:54:04.844Z,22.7
2018-09-03T07:56:05.590Z,22.7
2018-09-03T07:58:05.274Z,22.7
2018-09-03T08:00:10.059Z,22.8
2018-09-03T08:02:09.875Z,22.5
2018-09-03T08:04:08.106Z,22.2
2018-09-03T08:06:04.787Z,22.2
2018-09-03T08:08:05.016Z,22.1
2018-09-03T08:10:04.774Z,22.2
2018-09-03T08:12:05.012Z,22.3
2018-09-03T08:14:07.278Z,22.5
2018-09-03T08:16:05.596Z,22.5
2018-09-03T08:18:05.015Z,22.5
2018-09-03T08:20:07.411Z,22.4
2018-09-03T08:22:04.838Z,22.4
2018-09-03T08:24:05.727Z,22.2
2018-09-03T08:26:05.439Z,22.1
2018-09-03T08:28:05.314Z,22.1
2018-09-03T08:30:07.665Z,22
2018-09-03T08:32:05.594Z,22
2018-09-03T08:34:05.305Z,21.9
2018-09-03T08:36:05.009Z,21.8
2018-09-03T08:38:04.806Z,21.6
2018-09-03T08:40:06.354Z,21.6
2018-09-03T08:42:05.026Z,21.9
2018-09-03T08:44:07.779Z,21.9
2018-09-03T08:46:05.473Z,21.9
2018-09-03T08:48:07.721Z,21.9
2018-09-03T08:50:04.893Z,21.9
2018-09-03T08:52:05.559Z,21.9
2018-09-03T08:54:10.304Z,21.6
2018-09-03T08:56:05.259Z,21.6
2018-09-03T08:58:05.481Z,21.6
2018-09-03T09:00:05.268Z,21.7
2018-09-03T09:02:04.960Z,22
2018-09-03T09:04:12.302Z,21.6
2018-09-03T09:06:05.081Z,21.6
2018-09-03T09:08:04.705Z,21.5
2018-09-03T09:10:05.567Z,21.3
2018-09-03T09:12:05.357Z,21.2
2018-09-03T09:14:05.577Z,21.2
2018-09-03T09:16:07.386Z,21.4
2018-09-03T09:18:05.554Z,21.3
2018-09-03T09:20:05.257Z,21.3
2018-09-03T09:22:04.934Z,21.5
2018-09-03T09:24:07.137Z,21.2
2018-09-03T09:26:12.944Z,21.1
2018-09-03T09:28:04.671Z,21.1
2018-09-03T09:30:05.455Z,21
2018-09-03T09:32:05.163Z,20.9
2018-09-03T09:34:04.866Z,20.9
2018-09-03T09:36:05.094Z,21.1
2018-09-03T09:38:04.787Z,21.3
2018-09-03T09:40:08.057Z,21.2
2018-09-03T09:42:04.800Z,21.2
2018-09-03T09:44:05.532Z,21.2
2018-09-03T09:46:09.808Z,21.4
2018-09-03T09:48:05.484Z,21.4
2018-09-03T09:50:07.761Z,21.8
2018-09-03T09:52:05.460Z,21.8
2018-09-03T09:54:07.798Z,21.7
2018-09-03T09:56:08.036Z,21.7
2018-09-03T09:58:05.343Z,21.7
2018-09-03T10:00:05.557Z,21.9
2018-09-03T10:02:07.821Z,21.9
2018-09-03T10:04:08.121Z,22
2018-09-03T10:06:07.414Z,21.9
2018-09-03T10:08:05.095Z,21.9
2018-09-03T10:10:04.789Z,21.7
2018-09-03T10:12:05.544Z,21.5
2018-09-03T10:14:05.272Z,21.5
2018-09-03T10:16:04.996Z,21.4
2018-09-03T10:18:07.992Z,21.9
2018-09-03T10:20:04.701Z,21.9
2018-09-03T10:22:05.437Z,22.1
2018-09-03T10:24:05.165Z,22.3
2018-09-03T10:26:20.172Z,22.5
2018-09-03T10:28:05.396Z,22.5
2018-09-03T10:30:07.616Z,22.7
2018-09-03T10:32:05.299Z,22.7
2018-09-03T10:34:05.027Z,22.8
2018-09-03T10:36:04.749Z,22.8
2018-09-03T10:38:05.499Z,22.9
2018-09-03T10:40:05.058Z,22.9
2018-09-03T10:42:04.924Z,23
2018-09-03T10:44:04.588Z,23
2018-09-03T10:46:05.307Z,23.1
2018-09-03T10:48:05.030Z,23.2
2018-09-03T10:50:04.701Z,23.2
2018-09-03T10:52:05.462Z,23.2
2018-09-03T10:54:05.239Z,23.2
2018-09-03T10:56:10.262Z,23.3
2018-09-03T10:58:05.405Z,23.3
2018-09-03T11:00:07.196Z,23.4
2018-09-03T11:02:04.878Z,23.3
2018-09-03T11:04:08.224Z,23.4
2018-09-03T11:06:04.904Z,23.4
2018-09-03T11:08:05.107Z,23.5
2018-09-03T11:10:04.814Z,23.5
2018-09-03T11:12:05.050Z,23.5
2018-09-03T11:14:04.740Z,23.5
2018-09-03T11:16:05.588Z,23.5
2018-09-03T11:18:05.614Z,23.5
2018-09-03T11:20:05.458Z,23.5
2018-09-03T11:22:05.057Z,23.6
2018-09-03T11:24:04.807Z,23.6
2018-09-03T11:26:05.528Z,23.6
2018-09-03T11:28:05.259Z,23.6
2018-09-03T11:30:04.954Z,23.6
2018-09-03T11:32:04.682Z,23.6
2018-09-03T11:34:07.895Z,23.6
2018-09-03T11:36:10.639Z,23.6
2018-09-03T11:38:05.287Z,23.6
2018-09-03T11:40:12.618Z,23.6
2018-09-03T11:42:05.298Z,23.7
2018-09-03T11:44:05.006Z,23.7
2018-09-03T11:46:07.305Z,23.7
2018-09-03T11:48:07.534Z,23.7
2018-09-03T11:50:10.337Z,23.7
2018-09-03T11:52:10.365Z,23.7
2018-09-03T11:54:05.103Z,23.7
2018-09-03T11:56:05.113Z,23.7
2018-09-03T11:58:15.000Z,23.7
2018-09-03T12:00:05.240Z,23.7
2018-09-03T12:02:04.927Z,23.7
2018-09-03T12:04:10.946Z,23.7
2018-09-03T12:06:04.704Z,23.7
2018-09-03T12:08:07.954Z,23.7
2018-09-03T12:10:04.724Z,23.7
2018-09-03T12:12:05.556Z,23.7
2018-09-03T12:14:15.367Z,23.7
2018-09-03T12:16:05.581Z,23.7
2018-09-03T12:18:07.978Z,23.7
2018-09-03T12:20:04.725Z,23.7
2018-09-03T12:22:05.515Z,23.8
2018-09-03T12:24:05.169Z,23.8
2018-09-03T12:26:04.812Z,23.8
2018-09-03T12:28:05.491Z,23.8
2018-09-03T12:30:05.184Z,23.8
2018-09-03T12:32:04.890Z,23.8
2018-09-03T12:34:04.678Z,23.8
2018-09-03T12:36:05.344Z,23.8
2018-09-03T12:38:05.679Z,23.8
2018-09-03T12:40:05.434Z,23.8
2018-09-03T12:42:05.208Z,23.8
2018-09-03T12:44:10.097Z,23.8
2018-09-03T12:46:04.891Z,23.8
2018-09-03T12:48:07.233Z,23.8
2018-09-03T12:50:05.427Z,23.8
2018-09-03T12:52:04.830Z,23.8
2018-09-03T12:54:05.544Z,23.8
2018-09-03T12:56:05.209Z,23.8
2018-09-03T12:58:04.887Z,23.8
2018-09-03T13:00:05.755Z,23.8
2018-09-03T13:02:05.910Z,23.8
2018-09-03T13:04:05.141Z,23.8
2018-09-03T13:06:05.071Z,23.8
2018-09-03T13:08:13.130Z,23.8
2018-09-03T13:10:04.949Z,23.8
2018-09-03T13:12:07.111Z,23.8
2018-09-03T13:14:07.294Z,23.8
2018-09-03T13:16:05.523Z,23.9
2018-09-03T13:18:05.407Z,23.8
2018-09-03T13:20:04.651Z,23.9
2018-09-03T13:22:05.383Z,23.9
2018-09-03T13:24:05.135Z,23.9
2018-09-03T13:26:14.926Z,23.9
2018-09-03T13:28:05.293Z,23.9
2018-09-03T13:30:10.596Z,23.8
2018-09-03T13:32:05.391Z,23.8
2018-09-03T13:34:07.606Z,23.8
2018-09-03T13:36:07.421Z,23.9
2018-09-03T13:38:05.436Z,23.9
2018-09-03T13:40:07.232Z,23.9
2018-09-03T13:42:05.002Z,23.8
2018-09-03T13:44:04.998Z,23.9
2018-09-03T13:46:04.762Z,23.9
2018-09-03T13:48:05.419Z,23.9
2018-09-03T13:50:05.194Z,23.9
2018-09-03T13:52:04.908Z,23.9
2018-09-03T13:54:05.611Z,23.9
2018-09-03T13:56:05.433Z,23.9
2018-09-03T13:58:07.722Z,23.9
2018-09-03T14:00:05.637Z,23.9
2018-09-03T14:02:07.865Z,23.9
2018-09-03T14:04:13.160Z,23.9
2018-09-03T14:06:04.926Z,23.9
2018-09-03T14:08:04.640Z,23.9
2018-09-03T14:10:07.998Z,23.9
2018-09-03T14:12:05.122Z,23.9
2018-09-03T14:14:05.457Z,23.9
2018-09-03T14:16:18.838Z,23.9
2018-09-03T14:18:07.689Z,23.9
2018-09-03T14:20:07.435Z,23.9
2018-09-03T14:22:05.425Z,23.9
2018-09-03T14:24:07.857Z,24
2018-09-03T14:26:05.305Z,24
2018-09-03T14:28:04.746Z,24
2018-09-03T14:30:08.009Z,24
2018-09-03T14:32:07.268Z,24
2018-09-03T14:34:07.368Z,24
2018-09-03T14:36:05.090Z,24
2018-09-03T14:38:05.075Z,24
2018-09-03T14:40:07.314Z,24
2018-09-03T14:42:05.206Z,24
2018-09-03T14:44:05.397Z,24
2018-09-03T14:46:05.137Z,24
2018-09-03T14:48:07.421Z,24
2018-09-03T14:50:07.613Z,24
2018-09-03T14:52:07.859Z,24
2018-09-03T14:54:05.052Z,24
2018-09-03T14:56:07.285Z,24
2018-09-03T14:58:08.038Z,24
2018-09-03T15:00:05.102Z,24
2018-09-03T15:02:04.822Z,24
2018-09-03T15:04:07.307Z,24
2018-09-03T15:06:04.984Z,24
2018-09-03T15:08:04.718Z,24
2018-09-03T15:10:05.473Z,24
2018-09-03T15:12:05.249Z,24
2018-09-03T15:14:04.967Z,24
2018-09-03T15:16:04.686Z,24
2018-09-03T15:18:05.120Z,24
2018-09-03T15:20:05.769Z,24.1
2018-09-03T15:22:05.505Z,24.1
2018-09-03T15:24:04.764Z,24.1
2018-09-03T15:26:05.497Z,24
2018-09-03T15:28:05.618Z,24.1
2018-09-03T15:30:04.831Z,24.1
2018-09-03T15:32:05.574Z,24.1
2018-09-03T15:34:05.308Z,24.1
2018-09-03T15:36:05.044Z,24.1
2018-09-03T15:38:05.255Z,24.1
2018-09-03T15:40:06.035Z,24.1
2018-09-03T15:42:04.800Z,24.1
2018-09-03T15:44:04.737Z,24.1
2018-09-03T15:46:10.473Z,24.1
2018-09-03T15:48:05.167Z,24.1
2018-09-03T15:50:05.127Z,24.1
2018-09-03T15:52:04.925Z,24.1
2018-09-03T15:54:04.862Z,24.1
2018-09-03T15:56:05.378Z,24.1
2018-09-03T15:58:05.592Z,24.1
2018-09-03T16:00:04.825Z,24.2
2018-09-03T16:02:05.536Z,24.1
2018-09-03T16:04:07.988Z,24.1
2018-09-03T16:06:04.764Z,24.1
2018-09-03T16:08:05.455Z,24.1
2018-09-03T16:10:06.701Z,24.1
2018-09-03T16:12:04.893Z,24.1
2018-09-03T16:14:05.599Z,24.1
2018-09-03T16:16:05.308Z,24.1
2018-09-03T16:18:05.354Z,24.1
2018-09-03T16:20:04.888Z,24.1
2018-09-03T16:22:05.591Z,24.1
2018-09-03T16:24:05.330Z,24.1
2018-09-03T16:26:05.026Z,24.2
2018-09-03T16:28:07.892Z,24.1
2018-09-03T16:30:08.105Z,24.1
2018-09-03T16:32:04.801Z,24.1
2018-09-03T16:34:08.095Z,24.1
2018-09-03T16:36:05.556Z,24.1
2018-09-03T16:38:05.311Z,24.1
2018-09-03T16:40:05.097Z,24.1
2018-09-03T16:42:05.336Z,24.1
2018-09-03T16:44:04.926Z,24.1
2018-09-03T16:46:04.687Z,24.1
2018-09-03T16:48:07.934Z,24.1
2018-09-03T16:50:05.017Z,24.1
2018-09-03T16:52:05.224Z,24.1
2018-09-03T16:54:04.907Z,24.1
2018-09-03T16:56:04.629Z,24.1
2018-09-03T16:58:05.324Z,24.1
2018-09-03T17:00:05.191Z,24.1
2018-09-03T17:02:04.919Z,24.1
2018-09-03T17:04:04.651Z,24.1
2018-09-03T17:06:07.852Z,24.1
2018-09-03T17:08:05.615Z,24.1
2018-09-03T17:10:07.274Z,24.1
2018-09-03T17:12:04.923Z,24.1
2018-09-03T17:14:09.679Z,24.1
2018-09-03T17:16:04.999Z,24.1
2018-09-03T17:18:07.543Z,24.1
2018-09-03T17:20:10.281Z,24.1
2018-09-03T17:22:04.637Z,24.1
2018-09-03T17:24:05.295Z,24.1
2018-09-03T17:26:04.967Z,24.1
2018-09-03T17:28:04.636Z,24
2018-09-03T17:30:05.436Z,24.1
2018-09-03T17:32:07.675Z,24.1
2018-09-03T17:34:05.515Z,24.1
2018-09-03T17:36:05.217Z,24.2
2018-09-03T17:38:05.238Z,24.2
2018-09-03T17:40:07.488Z,24.2
2018-09-03T17:42:05.198Z,24.2
2018-09-03T17:44:04.893Z,24.2
2018-09-03T17:46:05.621Z,24.2
2018-09-03T17:48:05.389Z,24.2
2018-09-03T17:50:05.209Z,24.2
2018-09-03T17:52:04.916Z,24.2
2018-09-03T17:54:08.117Z,24.2
2018-09-03T17:56:04.856Z,24.2
2018-09-03T17:58:05.582Z,24.2
2018-09-03T18:00:07.861Z,24.2
2018-09-03T18:02:10.650Z,24.2
2018-09-03T18:04:05.370Z,24.2
2018-09-03T18:06:05.081Z,24.2
2018-09-03T18:08:04.756Z,24.2
2018-09-03T18:10:05.540Z,24.2
2018-09-03T18:12:05.218Z,24.3
2018-09-03T18:14:04.894Z,24.2
2018-09-03T18:16:08.138Z,24.2
2018-09-03T18:18:10.199Z,24.2
2018-09-03T18:20:07.990Z,24.2
2018-09-03T18:22:04.703Z,24.2
2018-09-03T18:24:10.548Z,24.2
2018-09-03T18:26:07.754Z,24.2
2018-09-03T18:28:05.550Z,24.2
2018-09-03T18:30:04.774Z,24.2
2018-09-03T18:32:05.159Z,24.2
2018-09-03T18:34:04.890Z,24.2
2018-09-03T18:36:04.764Z,24.3
2018-09-03T18:38:05.048Z,24.3
2018-09-03T18:40:05.290Z,24.2
2018-09-03T18:42:05.654Z,24.3
2018-09-03T18:44:05.483Z,24.2
2018-09-03T18:46:07.733Z,24.2
2018-09-03T18:48:07.940Z,24.2
2018-09-03T18:50:04.629Z,24.2
2018-09-03T18:52:05.382Z,24.2
2018-09-03T18:54:05.096Z,24.2
2018-09-03T18:56:07.311Z,24.2
2018-09-03T18:58:13.198Z,24.2
2018-09-03T19:00:05.028Z,24.2
2018-09-03T19:02:04.981Z,24.2
2018-09-03T19:04:04.677Z,24.2
2018-09-03T19:06:05.369Z,24.2
2018-09-03T19:08:07.887Z,24.2
2018-09-03T19:10:08.106Z,24.2
2018-09-03T19:12:04.834Z,24.2
2018-09-03T19:14:05.201Z,24.3
2018-09-03T19:16:04.927Z,24.2
2018-09-03T19:18:05.369Z,24.2
2018-09-03T19:20:04.663Z,24.2
2018-09-03T19:22:05.420Z,24.3
2018-09-03T19:24:05.484Z,24.3
2018-09-03T19:26:07.413Z,24.2
2018-09-03T19:28:05.197Z,24.2
2018-09-03T19:30:04.967Z,24.2
2018-09-03T19:32:04.734Z,24.2
2018-09-03T19:34:07.966Z,24.3
2018-09-03T19:36:05.348Z,24.3
2018-09-03T19:38:07.593Z,24.3
2018-09-03T19:40:04.790Z,24.3
2018-09-03T19:42:05.598Z,24.3
2018-09-03T19:44:05.416Z,24.3
2018-09-03T19:46:05.108Z,24.2
2018-09-03T19:48:05.405Z,24.2
2018-09-03T19:50:05.136Z,24.2
2018-09-03T19:52:05.569Z,24.2
2018-09-03T19:54:04.931Z,24.2
2018-09-03T19:56:07.256Z,24.3
2018-09-03T19:58:12.611Z,24.3
2018-09-03T20:00:07.836Z,24.3
2018-09-03T20:02:10.610Z,24.3
2018-09-03T20:04:04.875Z,24.3
2018-09-03T20:06:05.610Z,24.3
2018-09-03T20:08:08.062Z,24.3
2018-09-03T20:10:04.838Z,24.3
2018-09-03T20:12:05.543Z,24.3
2018-09-03T20:14:04.799Z,24.3
2018-09-03T20:16:05.039Z,24.4
2018-09-03T20:18:04.943Z,24.4
2018-09-03T20:20:09.690Z,24.4
2018-09-03T20:22:05.412Z,24.4
2018-09-03T20:24:05.141Z,24.4
2018-09-03T20:26:07.316Z,24.4
2018-09-03T20:28:04.994Z,24.4
2018-09-03T20:30:04.697Z,24.4
2018-09-03T20:32:10.027Z,24.4
2018-09-03T20:34:05.286Z,24.4
2018-09-03T20:36:05.597Z,24.4
2018-09-03T20:38:04.918Z,24.4
2018-09-03T20:40:07.723Z,24.5
2018-09-03T20:42:04.941Z,24.5
2018-09-03T20:44:04.707Z,24.5
2018-09-03T20:46:05.514Z,24.5
2018-09-03T20:48:05.237Z,24.5
2018-09-03T20:50:04.944Z,24.5
2018-09-03T20:52:04.707Z,24.5
2018-09-03T20:54:04.940Z,24.5
2018-09-03T20:56:04.880Z,24.4
2018-09-03T20:58:13.311Z,24.4
2018-09-03T21:00:05.030Z,24.5
2018-09-03T21:02:04.744Z,24.4
2018-09-03T21:04:07.978Z,24.5
2018-09-03T21:06:04.675Z,24.4
2018-09-03T21:08:05.464Z,24.4
2018-09-03T21:10:05.200Z,24.5
2018-09-03T21:12:04.895Z,24.4
2018-09-03T21:14:05.937Z,24.4
2018-09-03T21:16:04.978Z,24.4
2018-09-03T21:18:04.900Z,24.4
2018-09-03T21:20:05.562Z,24.4
2018-09-03T21:22:15.947Z,24.4
2018-09-03T21:24:05.445Z,24.4
2018-09-03T21:26:05.155Z,24.4
2018-09-03T21:28:05.084Z,24.4
2018-09-03T21:30:04.780Z,24.4
2018-09-03T21:32:08.009Z,24.4
2018-09-03T21:34:04.686Z,24.4
2018-09-03T21:36:04.920Z,24.3
2018-09-03T21:38:04.596Z,24.3
2018-09-03T21:40:07.308Z,24.3
2018-09-03T21:42:05.089Z,24.4
2018-09-03T21:44:04.792Z,24.3
2018-09-03T21:46:05.500Z,24.3
2018-09-03T21:48:05.216Z,24.3
2018-09-03T21:50:05.029Z,24.3
2018-09-03T21:52:05.336Z,24.3
2018-09-03T21:54:05.037Z,24.3
2018-09-03T21:56:04.759Z,24.3
2018-09-03T21:58:10.655Z,24.3
2018-09-03T22:00:05.296Z,24.3
2018-09-03T22:02:05.523Z,24.3
2018-09-03T22:04:05.252Z,24.3
2018-09-03T22:06:13.240Z,24.3
2018-09-03T22:08:04.972Z,24.3
2018-09-03T22:10:04.715Z,24.3
2018-09-03T22:12:05.478Z,24.3
2018-09-03T22:14:05.274Z,24.3
2018-09-03T22:16:05.183Z,24.3
2018-09-03T22:18:05.125Z,24.3
2018-09-03T22:20:04.934Z,24.3
2018-09-03T22:22:07.300Z,24.2
2018-09-03T22:24:05.116Z,24.3
2018-09-03T22:26:10.452Z,24.3
2018-09-03T22:28:07.835Z,24.3
2018-09-03T22:30:05.524Z,24.3
2018-09-03T22:32:05.393Z,24.3
2018-09-03T22:34:05.369Z,24.3
2018-09-03T22:36:05.053Z,24.3
2018-09-03T22:38:04.792Z,24.3
2018-09-03T22:40:05.752Z,24.3
2018-09-03T22:42:06.026Z,24.3
2018-09-03T22:44:05.040Z,24.3
2018-09-03T22:46:04.767Z,24.3
2018-09-03T22:48:05.481Z,24.3
2018-09-03T22:50:05.245Z,24.3
2018-09-03T22:52:05.139Z,24.3
2018-09-03T22:54:04.886Z,24.3
2018-09-03T22:56:05.667Z,24.3
2018-09-03T22:58:05.522Z,24.2
2018-09-03T23:00:05.237Z,24.3
2018-09-03T23:02:05.043Z,24.2
2018-09-03T23:04:05.061Z,24.2
2018-09-03T23:06:04.788Z,24.2
2018-09-03T23:08:05.465Z,24.2
2018-09-03T23:10:04.764Z,24.2
2018-09-03T23:12:07.629Z,24.2
2018-09-03T23:14:07.512Z,24.3
2018-09-03T23:16:05.380Z,24.2
2018-09-03T23:18:05.361Z,24.2
2018-09-03T23:20:05.108Z,24.3
2018-09-03T23:22:04.791Z,24.2
2018-09-03T23:24:05.615Z,24.2
2018-09-03T23:26:07.359Z,24.2
2018-09-03T23:28:10.092Z,24.2
2018-09-03T23:30:04.882Z,24.2
2018-09-03T23:32:04.772Z,24.2
2018-09-03T23:34:05.692Z,24.2
2018-09-03T23:36:05.535Z,24.2
2018-09-03T23:38:10.284Z,24.2
2018-09-03T23:40:04.949Z,24.2
2018-09-03T23:42:07.241Z,24.2
2018-09-03T23:44:08.025Z,24.2
2018-09-03T23:46:04.786Z,24.2
2018-09-03T23:48:08.070Z,24.2
2018-09-03T23:50:10.345Z,24.2
2018-09-03T23:52:05.151Z,24.3
2018-09-03T23:54:07.412Z,24.2
2018-09-03T23:56:07.659Z,24.2
2018-09-03T23:58:05.389Z,24.2
